createdAt,value
2022-11-05T00:00:57.344Z,92.62
2022-11-05T00:03:45.578Z,92.50
2022-11-05T00:06:33.813Z,92.40
2022-11-05T00:09:21.993Z,92.31
2022-11-05T00:12:10.114Z,92.27
2022-11-05T00:14:58.386Z,92.23
2022-11-05T00:17:26.592Z,92.24
2022-11-05T00:19:55.129Z,92.21
2022-11-05T00:22:43.156Z,92.13
2022-11-05T00:25:18.820Z,92.10
2022-11-05T00:27:49.358Z,92.03
2022-11-05T00:30:21.524Z,92.02
2022-11-05T00:32:50.604Z,92.06
2022-11-05T00:35:21.161Z,92.10
2022-11-05T00:37:50.562Z,91.92
2022-11-05T00:40:19.023Z,92.02
2022-11-05T00:43:07.282Z,91.98
2022-11-05T00:45:35.941Z,91.98
2022-11-05T00:48:24.022Z,91.70
2022-11-05T00:50:55.350Z,91.77
2022-11-05T00:53:24.752Z,91.74
2022-11-05T00:55:59.912Z,91.47
2022-11-05T00:58:29.837Z,91.54
2022-11-05T01:01:00.230Z,91.50
2022-11-05T01:03:32.152Z,91.60
2022-11-05T01:06:10.023Z,91.28
2022-11-05T01:08:38.503Z,91.50
2022-11-05T01:11:37.292Z,91.50
2022-11-05T01:14:11.841Z,91.26
2022-11-05T01:16:41.155Z,91.29
2022-11-05T01:19:12.120Z,91.27
2022-11-05T01:21:40.741Z,91.16
2022-11-05T01:24:11.202Z,91.11
2022-11-05T01:26:40.157Z,90.89
2022-11-05T01:29:08.843Z,90.91
2022-11-05T01:31:37.704Z,90.74
2022-11-05T01:34:06.303Z,90.75
2022-11-05T01:36:35.790Z,90.54
2022-11-05T01:39:05.803Z,90.65
2022-11-05T01:41:34.504Z,90.43
2022-11-05T01:44:04.083Z,90.61
2022-11-05T01:46:42.648Z,90.49
2022-11-05T01:51:56.354Z,90.59
2022-11-05T01:54:29.357Z,90.51
2022-11-05T01:57:04.825Z,90.54
2022-11-05T01:59:40.599Z,90.72
2022-11-05T02:02:10.093Z,90.82
2022-11-05T02:04:51.312Z,90.94
2022-11-05T02:07:20.583Z,91.16
2022-11-05T02:10:10.556Z,91.34
2022-11-05T02:12:44.351Z,91.39
2022-11-05T02:15:55.627Z,91.57
2022-11-05T02:35:16.407Z,91.66
2022-11-05T02:37:52.943Z,91.71
2022-11-05T02:51:24.835Z,91.68
2022-11-05T02:54:06.343Z,91.61
2022-11-05T02:56:40.034Z,91.53
2022-11-05T02:59:07.875Z,91.59
2022-11-05T03:01:38.909Z,91.42
2022-11-05T03:04:11.283Z,91.42
2022-11-05T03:18:13.910Z,89.96
2022-11-05T03:20:51.565Z,90.07
2022-11-05T03:23:27.402Z,89.64
2022-11-05T03:26:04.591Z,89.16
2022-11-05T03:28:36.411Z,88.63
2022-11-05T03:31:07.216Z,89.02
2022-11-05T03:33:37.857Z,88.71
2022-11-05T03:36:14.256Z,88.68
2022-11-05T03:38:47.031Z,88.92
2022-11-05T03:41:16.841Z,88.17
2022-11-05T03:43:49.305Z,88.39
2022-11-05T03:46:23.700Z,88.23
2022-11-05T03:48:55.777Z,88.21
2022-11-05T03:54:05.469Z,88.13
2022-11-05T03:59:16.580Z,87.94
2022-11-05T04:01:44.971Z,87.66
2022-11-05T04:04:12.731Z,87.71
2022-11-05T04:07:00.365Z,87.71
2022-11-05T04:09:48.123Z,87.39
2022-11-05T04:12:35.529Z,87.55
2022-11-05T04:15:03.698Z,87.60
2022-11-05T04:17:31.754Z,87.54
2022-11-05T04:20:19.542Z,87.20
2022-11-05T04:23:07.744Z,87.49
2022-11-05T04:25:35.762Z,87.26
2022-11-05T04:28:04.500Z,87.48
2022-11-05T04:30:33.397Z,87.65
2022-11-05T04:33:06.723Z,87.33
2022-11-05T04:35:39.684Z,87.63
2022-11-05T04:38:11.086Z,87.33
2022-11-05T04:40:39.411Z,87.46
2022-11-05T04:43:14.736Z,87.07
2022-11-05T04:45:44.141Z,87.50
2022-11-05T04:48:13.361Z,87.66
2022-11-05T04:50:41.103Z,87.61
2022-11-05T04:53:09.165Z,87.69
2022-11-05T04:55:40.890Z,87.48
2022-11-05T04:58:09.914Z,87.18
2022-11-05T05:00:38.185Z,87.23
2022-11-05T05:03:06.368Z,87.30
2022-11-05T05:05:34.803Z,87.12
2022-11-05T05:08:04.687Z,87.30
2022-11-05T05:10:33.842Z,86.99
2022-11-05T05:13:02.101Z,87.21
2022-11-05T05:15:30.583Z,87.14
2022-11-05T05:17:58.763Z,87.40
2022-11-05T05:20:46.427Z,87.57
2022-11-05T05:23:14.412Z,87.33
2022-11-05T05:25:42.345Z,87.32
2022-11-05T05:28:10.342Z,87.28
2022-11-05T05:30:38.872Z,87.20
2022-11-05T05:33:06.945Z,87.36
2022-11-05T05:35:34.947Z,87.45
2022-11-05T05:38:02.651Z,87.19
2022-11-05T05:40:30.531Z,86.85
2022-11-05T05:42:59.222Z,87.03
2022-11-05T05:45:26.960Z,86.40
2022-11-05T05:47:57.215Z,86.80
2022-11-05T05:50:26.270Z,84.53
2022-11-05T05:52:54.267Z,85.14
2022-11-05T05:55:22.278Z,85.57
2022-11-05T05:57:50.532Z,85.97
2022-11-05T06:00:18.992Z,85.79
2022-11-05T06:02:47.319Z,85.54
2022-11-05T06:05:15.349Z,85.89
2022-11-05T06:07:43.283Z,86.11
2022-11-05T06:10:11.254Z,86.17
2022-11-05T06:12:39.759Z,86.44
2022-11-05T06:15:08.257Z,85.94
2022-11-05T06:17:36.302Z,85.80
2022-11-05T06:20:04.402Z,86.18
2022-11-05T06:22:32.084Z,86.34
2022-11-05T06:24:59.760Z,86.12
2022-11-05T06:27:28.768Z,86.34
2022-11-05T06:29:56.515Z,86.08
2022-11-05T06:32:24.505Z,86.18
2022-11-05T06:34:52.144Z,85.90
2022-11-05T06:37:20.172Z,86.84
2022-11-05T06:39:47.987Z,86.38
2022-11-05T06:42:19.414Z,85.43
2022-11-05T06:44:47.354Z,85.78
2022-11-05T06:47:14.929Z,85.81
2022-11-05T06:49:42.719Z,85.96
2022-11-05T06:52:10.297Z,84.12
2022-11-05T06:54:38.097Z,83.84
2022-11-05T06:57:06.770Z,84.24
2022-11-05T06:59:35.012Z,83.33
2022-11-05T07:02:02.869Z,83.58
2022-11-05T07:04:30.876Z,83.50
2022-11-05T07:07:01.357Z,83.49
2022-11-05T07:09:29.833Z,83.67
2022-11-05T07:11:57.460Z,84.09
2022-11-05T07:14:25.255Z,84.00
2022-11-05T07:16:52.860Z,83.94
2022-11-05T07:19:21.310Z,82.30
2022-11-05T07:21:49.103Z,83.17
2022-11-05T07:24:17.064Z,82.98
2022-11-05T07:26:45.044Z,83.58
2022-11-05T07:29:12.779Z,83.61
2022-11-05T07:31:40.503Z,83.52
2022-11-05T07:34:08.359Z,84.13
2022-11-05T07:36:36.247Z,83.98
2022-11-05T07:39:04.023Z,84.08
2022-11-05T07:41:31.850Z,83.94
2022-11-05T07:43:59.601Z,84.34
2022-11-05T07:46:27.305Z,83.47
2022-11-05T07:48:55.129Z,83.30
2022-11-05T07:51:22.979Z,83.60
2022-11-05T07:53:50.786Z,83.58
2022-11-05T07:56:18.711Z,82.80
2022-11-05T07:58:46.410Z,83.61
2022-11-05T08:01:14.434Z,82.76
2022-11-05T08:03:42.661Z,83.58
2022-11-05T08:06:10.574Z,83.64
2022-11-05T08:08:38.329Z,83.76
2022-11-05T08:11:08.375Z,83.65
2022-11-05T08:13:37.302Z,83.57
2022-11-05T08:16:06.142Z,83.26
2022-11-05T08:18:34.530Z,83.37
2022-11-05T08:21:04.512Z,82.63
2022-11-05T08:23:32.921Z,83.06
2022-11-05T08:26:04.032Z,82.42
2022-11-05T08:28:32.537Z,83.17
2022-11-05T08:31:00.357Z,83.59
2022-11-05T08:33:29.864Z,83.89
2022-11-05T08:36:01.606Z,81.57
2022-11-05T08:38:29.360Z,81.96
2022-11-05T08:40:58.580Z,82.10
2022-11-05T08:43:26.592Z,81.68
2022-11-05T08:45:55.395Z,82.12
2022-11-05T08:48:23.230Z,81.90
2022-11-05T08:50:50.865Z,82.27
2022-11-05T08:53:18.900Z,81.26
2022-11-05T08:55:48.036Z,80.94
2022-11-05T08:58:17.416Z,81.04
2022-11-05T09:00:47.589Z,80.90
2022-11-05T09:03:15.719Z,81.65
2022-11-05T09:05:44.280Z,80.91
2022-11-05T09:08:15.001Z,81.02
2022-11-05T09:10:44.508Z,81.60
2022-11-05T09:13:18.335Z,82.11
2022-11-05T09:15:49.268Z,82.34
2022-11-05T09:18:18.390Z,82.02
2022-11-05T09:20:46.846Z,82.41
2022-11-05T09:23:15.539Z,82.98
2022-11-05T09:25:44.100Z,83.41
2022-11-05T09:28:18.599Z,83.56
2022-11-05T09:30:48.719Z,83.68
2022-11-05T09:33:18.981Z,83.86
2022-11-05T09:35:47.212Z,83.96
2022-11-05T09:38:15.251Z,83.95
2022-11-05T09:41:01.579Z,83.64
2022-11-05T09:43:49.499Z,83.58
2022-11-05T09:49:03.645Z,83.06
2022-11-05T09:51:32.252Z,83.27
2022-11-05T09:54:04.210Z,83.47
2022-11-05T09:56:35.380Z,82.99
2022-11-05T09:59:14.597Z,83.63
2022-11-05T10:01:45.914Z,83.64
2022-11-05T10:04:19.582Z,83.18
2022-11-05T10:06:52.207Z,82.71
2022-11-05T10:09:43.665Z,82.24
2022-11-05T10:17:44.015Z,80.99
2022-11-05T10:20:36.013Z,81.12
2022-11-05T10:23:15.273Z,81.50
2022-11-05T10:25:47.792Z,80.75
2022-11-05T10:28:24.664Z,81.12
2022-11-05T10:30:58.285Z,81.45
2022-11-05T10:36:22.866Z,81.44
2022-11-05T10:38:51.215Z,81.40
2022-11-05T10:41:49.874Z,82.04
2022-11-05T10:47:07.297Z,81.65
2022-11-05T10:49:49.154Z,81.63
2022-11-05T10:52:24.934Z,82.05
2022-11-05T10:54:55.521Z,81.80
2022-11-05T10:57:35.698Z,83.10
2022-11-05T11:00:21.973Z,83.10
2022-11-05T11:02:53.983Z,81.98
2022-11-05T11:05:31.787Z,82.31
2022-11-05T11:10:57.479Z,81.83
2022-11-05T11:13:29.130Z,82.30
2022-11-05T11:16:15.290Z,82.15
2022-11-05T11:18:44.181Z,82.16
2022-11-05T11:21:17.828Z,82.13
2022-11-05T11:24:01.266Z,81.46
2022-11-05T11:26:33.050Z,81.03
2022-11-05T11:29:07.421Z,81.52
2022-11-05T11:31:39.763Z,81.77
2022-11-05T11:37:06.227Z,81.51
2022-11-05T11:39:35.314Z,81.63
2022-11-05T11:42:11.720Z,80.69
2022-11-05T11:44:44.507Z,81.02
2022-11-05T11:47:16.194Z,80.87
2022-11-05T11:50:01.522Z,81.30
2022-11-05T11:52:33.654Z,81.10
2022-11-05T11:55:22.214Z,80.85
2022-11-05T11:57:53.700Z,81.17
2022-11-05T12:00:27.281Z,81.15
2022-11-05T12:16:53.916Z,82.13
2022-11-05T12:25:49.456Z,81.71
2022-11-05T12:39:53.004Z,81.48
2022-11-05T12:56:02.055Z,82.41
2022-11-05T12:58:35.577Z,82.54
2022-11-05T13:01:09.297Z,82.40
2022-11-05T13:06:40.685Z,82.17
2022-11-05T13:09:24.120Z,82.38
2022-11-05T13:12:12.733Z,82.25
2022-11-05T13:17:30.009Z,81.44
2022-11-05T13:20:19.634Z,82.42
2022-11-05T13:22:52.860Z,82.00
2022-11-05T13:25:41.115Z,82.21
2022-11-05T13:31:10.401Z,82.62
2022-11-05T13:33:43.104Z,82.62
2022-11-05T13:36:37.706Z,81.77
2022-11-05T13:52:53.795Z,82.46
2022-11-05T14:01:50.028Z,82.49
2022-11-05T14:07:27.677Z,82.36
2022-11-05T14:10:02.208Z,82.63
2022-11-05T14:12:37.215Z,82.68
2022-11-05T14:17:58.120Z,82.65
2022-11-05T14:20:39.994Z,82.57
2022-11-05T14:28:43.128Z,82.45
2022-11-05T14:39:50.702Z,82.56
2022-11-05T14:42:25.321Z,82.49
2022-11-05T14:47:50.341Z,82.80
2022-11-05T14:50:26.431Z,82.81
2022-11-05T14:52:57.386Z,82.95
2022-11-05T14:58:35.779Z,82.99
2022-11-05T15:01:09.073Z,82.68
2022-11-05T15:06:37.546Z,83.04
2022-11-05T15:09:31.435Z,82.88
2022-11-05T15:12:05.829Z,83.07
2022-11-05T15:17:23.931Z,82.91
2022-11-05T15:19:53.549Z,82.86
2022-11-05T15:22:43.557Z,82.97
2022-11-05T15:25:27.737Z,82.05
2022-11-05T15:28:16.155Z,82.75
2022-11-05T15:33:44.920Z,82.78
2022-11-05T15:36:23.985Z,82.90
2022-11-05T15:39:23.036Z,82.73
2022-11-05T15:41:40.595Z,82.32
2022-11-05T15:44:25.287Z,82.66
2022-11-05T15:47:22.507Z,82.12
2022-11-05T15:49:55.421Z,82.55
2022-11-05T15:52:32.407Z,82.67
2022-11-05T15:55:20.814Z,82.49
2022-11-05T15:57:52.754Z,82.70
2022-11-05T16:00:23.880Z,82.30
2022-11-05T16:05:44.453Z,82.25
2022-11-05T16:08:17.322Z,82.63
2022-11-05T16:10:49.187Z,82.27
2022-11-05T16:16:04.089Z,82.67
2022-11-05T16:18:34.963Z,82.13
2022-11-05T16:24:01.023Z,82.52
2022-11-05T16:29:24.224Z,82.81
2022-11-05T16:31:54.108Z,82.74
2022-11-05T16:34:38.488Z,83.00
2022-11-05T16:37:08.561Z,82.72
2022-11-05T16:39:36.454Z,82.30
2022-11-05T16:45:02.155Z,82.92
2022-11-05T16:47:31.943Z,83.21
2022-11-05T16:50:00.621Z,83.42
2022-11-05T16:52:28.767Z,83.53
2022-11-05T16:54:57.087Z,83.73
2022-11-05T16:57:28.586Z,83.74
2022-11-05T16:59:57.755Z,83.95
2022-11-05T17:02:26.580Z,83.68
2022-11-05T17:04:55.058Z,83.54
2022-11-05T17:07:23.263Z,83.87
2022-11-05T17:09:51.550Z,82.72
2022-11-05T17:12:19.562Z,82.44
2022-11-05T17:14:47.618Z,82.87
2022-11-05T17:17:16.251Z,83.16
2022-11-05T17:19:44.814Z,82.28
2022-11-05T17:22:13.282Z,83.39
2022-11-05T17:24:41.424Z,82.79
2022-11-05T17:27:09.514Z,83.35
2022-11-05T17:29:37.599Z,83.31
2022-11-05T17:32:07.011Z,83.32
2022-11-05T17:34:36.045Z,83.69
2022-11-05T17:37:04.234Z,83.31
2022-11-05T17:39:32.591Z,82.89
2022-11-05T17:42:00.707Z,82.83
2022-11-05T17:44:29.392Z,83.19
2022-11-05T17:46:57.520Z,83.26
2022-11-05T17:49:25.906Z,83.00
2022-11-05T17:51:53.974Z,82.95
2022-11-05T17:54:22.325Z,83.21
2022-11-05T17:56:50.551Z,82.07
2022-11-05T17:59:19.280Z,82.35
2022-11-05T18:01:48.649Z,82.47
2022-11-05T18:04:16.721Z,82.37
2022-11-05T18:06:45.203Z,82.50
2022-11-05T18:09:14.313Z,82.82
2022-11-05T18:11:43.409Z,82.63
2022-11-05T18:14:11.647Z,81.93
2022-11-05T18:16:39.846Z,82.94
2022-11-05T18:19:08.472Z,83.29
2022-11-05T18:21:37.021Z,83.44
2022-11-05T18:24:06.614Z,83.52
2022-11-05T18:26:35.753Z,83.55
2022-11-05T18:29:06.689Z,83.38
2022-11-05T18:31:35.383Z,82.89
2022-11-05T18:34:03.767Z,82.68
2022-11-05T18:36:33.518Z,82.34
2022-11-05T18:39:03.680Z,83.36
2022-11-05T18:41:32.107Z,83.82
2022-11-05T18:44:01.386Z,83.72
2022-11-05T18:46:56.592Z,83.44
2022-11-05T18:49:19.622Z,83.14
2022-11-05T18:51:47.956Z,83.11
2022-11-05T18:54:16.176Z,83.69
2022-11-05T18:56:46.087Z,85.04
2022-11-05T19:02:05.283Z,84.34
2022-11-05T19:04:35.228Z,84.21
2022-11-05T19:07:05.439Z,83.99
2022-11-05T19:09:35.250Z,84.05
2022-11-05T19:12:03.898Z,84.58
2022-11-05T19:14:33.745Z,84.29
2022-11-05T19:17:02.544Z,84.55
2022-11-05T19:19:31.145Z,84.87
2022-11-05T19:21:59.599Z,84.51
2022-11-05T19:24:27.779Z,84.40
2022-11-05T19:26:55.923Z,84.27
2022-11-05T19:29:24.199Z,84.73
2022-11-05T19:31:52.078Z,84.75
2022-11-05T19:34:21.270Z,84.58
2022-11-05T19:36:49.801Z,83.42
2022-11-05T19:39:18.322Z,84.14
2022-11-05T19:41:46.866Z,84.57
2022-11-05T19:44:15.348Z,84.64
2022-11-05T19:46:44.430Z,84.41
2022-11-05T19:49:13.801Z,84.74
2022-11-05T19:51:42.487Z,84.65
2022-11-05T19:54:11.578Z,84.24
2022-11-05T19:56:40.226Z,84.36
2022-11-05T19:59:08.541Z,84.58
2022-11-05T20:01:37.333Z,84.82
2022-11-05T20:04:06.806Z,84.60
2022-11-05T20:06:40.078Z,84.81
2022-11-05T20:09:21.791Z,84.83
2022-11-05T20:11:55.028Z,84.84
2022-11-05T20:14:26.901Z,85.06
2022-11-05T20:16:55.222Z,85.07
2022-11-05T20:19:24.375Z,84.57
2022-11-05T20:21:53.206Z,84.47
2022-11-05T20:24:25.323Z,85.01
2022-11-05T20:26:55.435Z,84.96
2022-11-05T20:29:26.055Z,84.77
2022-11-05T20:31:58.324Z,84.22
2022-11-05T20:34:26.571Z,84.22
2022-11-05T20:36:55.262Z,83.92
2022-11-05T20:39:24.127Z,84.18
2022-11-05T20:41:53.323Z,84.17
2022-11-05T20:44:21.193Z,84.27
2022-11-05T20:46:49.899Z,84.53
2022-11-05T20:49:24.052Z,83.31
2022-11-05T20:51:54.264Z,83.26
2022-11-05T20:54:23.738Z,83.47
2022-11-05T20:56:52.904Z,83.96
2022-11-05T20:59:21.364Z,84.15
2022-11-05T21:01:52.911Z,83.86
2022-11-05T21:04:21.592Z,84.25
2022-11-05T21:06:50.425Z,84.21
2022-11-05T21:09:20.821Z,84.36
2022-11-05T21:12:11.824Z,84.52
2022-11-05T21:14:41.585Z,84.60
2022-11-05T21:17:12.532Z,84.94
2022-11-05T21:19:41.243Z,84.76
2022-11-05T21:22:09.823Z,85.06
2022-11-05T21:24:38.281Z,85.41
2022-11-05T21:27:06.587Z,85.42
2022-11-05T21:29:34.800Z,86.37
2022-11-05T21:32:04.290Z,86.31
2022-11-05T21:34:32.891Z,85.87
2022-11-05T21:37:01.028Z,85.35
2022-11-05T21:39:29.583Z,85.82
2022-11-05T21:41:58.681Z,85.36
2022-11-05T21:44:27.141Z,85.13
2022-11-05T21:47:00.507Z,84.96
2022-11-05T21:49:28.997Z,84.88
2022-11-05T21:52:17.554Z,84.57
2022-11-05T21:55:06.427Z,84.88
2022-11-05T21:57:54.801Z,85.00
2022-11-05T22:00:23.141Z,85.18
2022-11-05T22:02:52.403Z,85.15
2022-11-05T22:05:20.654Z,85.33
2022-11-05T22:07:48.497Z,85.58
2022-11-05T22:10:17.732Z,86.33
2022-11-05T22:12:46.374Z,85.87
2022-11-05T22:15:15.435Z,85.74
2022-11-05T22:17:46.976Z,85.44
2022-11-05T22:20:16.165Z,85.47
2022-11-05T22:22:44.435Z,85.45
2022-11-05T22:25:14.114Z,85.36
2022-11-05T22:27:42.480Z,85.50
2022-11-05T22:30:11.178Z,85.66
2022-11-05T22:32:39.620Z,85.91
2022-11-05T22:35:09.390Z,86.28
2022-11-05T22:37:37.526Z,85.65
2022-11-05T22:40:06.125Z,85.83
2022-11-05T22:42:34.804Z,85.65
2022-11-05T22:45:02.468Z,85.54
2022-11-05T22:47:30.809Z,85.53
2022-11-05T22:49:58.919Z,85.40
2022-11-05T22:52:27.122Z,85.56
2022-11-05T22:54:56.211Z,85.69
2022-11-05T22:57:24.399Z,86.29
2022-11-05T22:59:53.071Z,85.42
2022-11-05T23:02:21.811Z,85.40
2022-11-05T23:04:52.558Z,85.33
2022-11-05T23:07:40.921Z,85.38
2022-11-05T23:10:30.100Z,85.17
2022-11-05T23:12:58.370Z,85.15
2022-11-05T23:15:46.326Z,85.28
2022-11-05T23:18:34.859Z,85.51
2022-11-05T23:21:25.782Z,85.38
2022-11-05T23:24:10.033Z,85.52
2022-11-05T23:26:59.804Z,85.67
2022-11-05T23:29:29.201Z,85.55
2022-11-05T23:32:17.588Z,85.36
2022-11-05T23:34:45.923Z,85.21
2022-11-05T23:37:38.071Z,85.25
2022-11-05T23:40:10.087Z,85.07
2022-11-05T23:42:59.741Z,85.09
2022-11-05T23:45:48.007Z,85.20
2022-11-05T23:48:23.520Z,85.54
2022-11-05T23:53:31.861Z,85.53
2022-11-05T23:56:16.472Z,85.76
2022-11-05T23:58:44.940Z,85.62
